Aviation Digital Data Service (ADDS)

Output produced by METARs form (2017 UTC 04 March 2015)
found at http://aviationweather.gov/adds/metars/
 
KPOU 041825Z 0418/0518 26006KT P6SM SCT030 OVC100 
     FM050000 VRB03KT P6SM VCSH SCT025 BKN050 OVC100 
     FM050300 33004KT 4SM -SN BKN025 OVC050 
     FM050600 34005KT 2SM -SN SCT008 OVC015 
     FM051200 34006KT 5SM -SN SCT012 OVC025 
     FM051500 34006KT P6SM VCSH SCT025 OVC050